Time;durP1;ratioP1;P1;durP2;ratioP2;P2;SDS_P1;SDS_P2;PMS_P1;PMS_P2;Temp;Humidity;BMP_temperature;BMP_pressure;BME280_temperature;BME280_humidity;BME280_pressure;Samples;Min_cycle;Max_cycle;Signal;HPM_P1;HPM_P2
2022/12/07 00:01:29;;;;;;;26.00;10.82;;;;;;;1.04;100.00;95413.78;5024827;28;20549;-73
2022/12/07 00:04:06;;;;;;;27.35;10.73;;;;;;;1.02;100.00;95410.59;5016760;28;20033;-72
2022/12/07 00:06:32;;;;;;;24.35;10.48;;;;;;;1.09;100.00;95411.34;5025367;28;20053;-72
2022/12/07 00:08:58;;;;;;;26.25;10.93;;;;;;;0.98;100.00;95414.63;5014540;28;20045;-72
2022/12/07 00:11:24;;;;;;;25.25;11.02;;;;;;;1.02;100.00;95411.41;5028853;28;20046;-72
2022/12/07 00:13:55;;;;;;;24.85;10.32;;;;;;;0.96;100.00;95403.66;5022467;28;20033;-72
2022/12/07 00:16:23;;;;;;;23.98;11.20;;;;;;;0.96;100.00;95407.06;5018903;28;20045;-72
2022/12/07 00:18:48;;;;;;;21.88;9.25;;;;;;;1.09;100.00;95403.56;5021904;28;20033;-72
2022/12/07 00:21:23;;;;;;;20.15;9.48;;;;;;;1.04;100.00;95408.59;5022297;28;20052;-72
2022/12/07 00:23:50;;;;;;;22.27;9.43;;;;;;;0.98;100.00;95399.88;5017638;28;20056;-72
2022/12/07 00:26:19;;;;;;;24.77;9.20;;;;;;;1.02;100.00;95395.03;5012823;28;20065;-72
2022/12/07 00:28:46;;;;;;;22.40;9.65;;;;;;;1.03;100.00;95396.63;5017524;28;20053;-72
2022/12/07 00:31:13;;;;;;;20.15;8.93;;;;;;;1.02;100.00;95400.22;5024807;28;20092;-72
2022/12/07 00:33:39;;;;;;;20.50;9.48;;;;;;;1.04;100.00;95403.41;5021122;28;20454;-72
2022/12/07 00:36:08;;;;;;;19.42;9.25;;;;;;;1.11;100.00;95388.59;5024390;28;20037;-73
2022/12/07 00:38:35;;;;;;;23.30;9.48;;;;;;;1.06;100.00;95391.03;5028866;28;20057;-72
2022/12/07 00:41:03;;;;;;;18.40;8.80;;;;;;;1.03;100.00;95396.63;5026317;28;20057;-72
2022/12/07 00:43:29;;;;;;;19.33;9.88;;;;;;;1.01;100.00;95396.06;5016930;28;20038;-72
2022/12/07 00:45:55;;;;;;;18.92;9.00;;;;;;;1.00;100.00;95391.88;5026818;28;20152;-72
2022/12/07 00:48:21;;;;;;;20.98;9.73;;;;;;;1.08;100.00;95399.41;5022910;28;20045;-71
2022/12/07 00:50:47;;;;;;;21.50;9.15;;;;;;;0.95;100.00;95394.31;5025118;28;20038;-72
2022/12/07 00:53:13;;;;;;;21.42;9.80;;;;;;;0.90;100.00;95394.16;5011634;28;20073;-72
2022/12/07 00:55:39;;;;;;;24.27;9.93;;;;;;;0.94;100.00;95397.91;5027150;28;20041;-72
2022/12/07 00:58:04;;;;;;;17.23;9.25;;;;;;;0.88;100.00;95391.78;5029135;28;20049;-72
2022/12/07 01:00:30;;;;;;;19.45;9.50;;;;;;;0.89;100.00;95401.16;5028458;28;20052;-73
2022/12/07 01:02:56;;;;;;;23.05;9.57;;;;;;;0.86;100.00;95399.75;5024461;28;20042;-72
2022/12/07 01:05:21;;;;;;;20.08;9.32;;;;;;;0.85;100.00;95390.41;5012316;28;20068;-72
2022/12/07 01:07:47;;;;;;;17.83;8.63;;;;;;;0.84;100.00;95399.16;5009110;28;20133;-73
2022/12/07 01:10:14;;;;;;;17.67;8.52;;;;;;;0.78;100.00;95394.84;5020571;28;20100;-73
2022/12/07 01:12:40;;;;;;;16.88;7.90;;;;;;;0.81;100.00;95394.41;5019076;28;20041;-72
2022/12/07 01:15:06;;;;;;;19.00;8.55;;;;;;;0.84;100.00;95388.81;5018560;28;20048;-72
2022/12/07 01:17:32;;;;;;;19.73;9.15;;;;;;;0.76;100.00;95385.69;5020317;28;20781;-72
2022/12/07 01:19:57;;;;;;;19.20;8.50;;;;;;;0.85;100.00;95387.81;5017522;28;20033;-72
2022/12/07 01:22:23;;;;;;;18.48;8.40;;;;;;;0.79;100.00;95396.44;5028865;28;20037;-72
2022/12/07 01:24:49;;;;;;;19.85;8.65;;;;;;;0.83;100.00;95397.59;5020325;28;20553;-73
2022/12/07 01:27:15;;;;;;;19.55;8.48;;;;;;;0.83;100.00;95392.41;5014541;28;20098;-72
2022/12/07 01:29:41;;;;;;;18.25;7.78;;;;;;;0.89;100.00;95395.16;5019597;28;20096;-72
2022/12/07 01:32:07;;;;;;;20.10;8.48;;;;;;;0.74;100.00;95393.66;5022925;28;20061;-73
2022/12/07 01:34:32;;;;;;;17.73;8.00;;;;;;;0.83;100.00;95399.38;5019749;28;20054;-72
2022/12/07 01:36:58;;;;;;;19.27;8.38;;;;;;;0.77;100.00;95403.59;5027722;28;20485;-72
2022/12/07 01:39:23;;;;;;;22.00;8.52;;;;;;;0.84;100.00;95406.94;5029174;28;20061;-72
2022/12/07 01:41:49;;;;;;;19.85;8.35;;;;;;;0.77;100.00;95403.59;5027021;28;20060;-72
2022/12/07 01:44:18;;;;;;;16.85;9.10;;;;;;;0.81;100.00;95398.81;5022685;28;20474;-73
2022/12/07 01:46:55;;;;;;;19.65;7.90;;;;;;;0.91;100.00;95403.53;5022631;28;20046;-72
2022/12/07 01:49:33;;;;;;;19.20;8.48;;;;;;;0.81;100.00;95399.59;5010196;28;20046;-72
2022/12/07 01:52:15;;;;;;;18.73;8.57;;;;;;;0.80;100.00;95392.81;5028106;28;20049;-72
2022/12/07 01:54:43;;;;;;;19.42;8.43;;;;;;;0.78;100.00;95383.69;5017345;28;20037;-73
2022/12/07 01:57:10;;;;;;;15.63;7.60;;;;;;;0.90;100.00;95392.34;5022394;28;20136;-72
2022/12/07 01:59:37;;;;;;;18.55;8.50;;;;;;;0.82;100.00;95380.47;5019709;28;20045;-72
2022/12/07 02:02:06;;;;;;;18.60;8.32;;;;;;;0.81;100.00;95384.03;5025775;28;20384;-72
2022/12/07 02:04:33;;;;;;;19.90;8.48;;;;;;;0.75;100.00;95384.91;5026837;28;20045;-72
2022/12/07 02:06:59;;;;;;;18.63;8.98;;;;;;;0.78;100.00;95384.47;5015005;28;20048;-72
2022/12/07 02:09:25;;;;;;;18.92;8.75;;;;;;;0.73;100.00;95384.28;5015070;28;20095;-72
2022/12/07 02:11:51;;;;;;;17.73;7.85;;;;;;;0.77;100.00;95382.88;5021530;28;20049;-72
2022/12/07 02:14:17;;;;;;;16.38;7.82;;;;;;;0.73;100.00;95389.47;5022875;28;20041;-72
2022/12/07 02:16:57;;;;;;;18.20;8.27;;;;;;;0.68;100.00;95389.31;5025468;28;20049;-72
2022/12/07 02:19:33;;;;;;;16.10;8.18;;;;;;;0.70;100.00;95382.13;5022516;28;20050;-72
2022/12/07 02:22:27;;;;;;;18.63;8.27;;;;;;;0.71;100.00;95378.53;5027441;28;20503;-72
2022/12/07 02:25:18;;;;;;;18.95;8.55;;;;;;;0.69;100.00;95383.94;5030377;28;20057;-72
2022/12/07 02:27:47;;;;;;;18.48;8.57;;;;;;;0.73;100.00;95376.53;5022835;28;20503;-72
2022/12/07 02:30:19;;;;;;;18.65;9.57;;;;;;;0.68;100.00;95368.59;5017880;28;20054;-72
2022/12/07 02:33:05;;;;;;;18.85;8.63;;;;;;;0.60;100.00;95366.25;5023586;28;20073;-72
2022/12/07 02:35:51;;;;;;;19.83;8.80;;;;;;;0.67;100.00;95377.38;5020477;28;20041;-72
2022/12/07 02:38:44;;;;;;;17.73;8.20;;;;;;;0.60;100.00;95384.38;5028572;28;20038;-72
2022/12/07 02:41:15;;;;;;;18.70;8.30;;;;;;;0.64;100.00;95377.78;5024790;28;20033;-72
2022/12/07 02:43:50;;;;;;;20.00;8.63;;;;;;;0.65;100.00;95380.19;5024459;28;20041;-72
2022/12/07 02:46:21;;;;;;;21.42;9.68;;;;;;;0.63;100.00;95365.84;5029211;28;20427;-72
2022/12/07 02:48:47;;;;;;;21.23;9.48;;;;;;;0.67;100.00;95367.00;5017444;28;20046;-72
2022/12/07 02:51:13;;;;;;;19.90;8.88;;;;;;;0.78;100.00;95368.94;5020039;28;20095;-72
2022/12/07 02:53:40;;;;;;;20.00;9.32;;;;;;;0.73;100.00;95365.38;5030696;28;20045;-72
2022/12/07 02:56:24;;;;;;;18.52;9.20;;;;;;;0.69;100.00;95359.84;5025840;28;20466;-72
2022/12/07 02:59:01;;;;;;;18.00;8.83;;;;;;;0.66;100.00;95365.41;5012503;28;20515;-72
2022/12/07 03:01:46;;;;;;;19.05;8.95;;;;;;;0.64;100.00;95367.44;5029548;28;20041;-72
2022/12/07 03:04:33;;;;;;;20.07;8.63;;;;;;;0.58;100.00;95363.09;5019477;28;20487;-72
2022/12/07 03:07:14;;;;;;;20.25;8.75;;;;;;;0.61;100.00;95367.88;5018052;28;20046;-73
2022/12/07 03:10:00;;;;;;;18.40;8.88;;;;;;;0.64;100.00;95362.25;5012333;28;20156;-73
2022/12/07 03:12:41;;;;;;;16.40;8.23;;;;;;;0.59;100.00;95362.09;5012201;28;20049;-72
2022/12/07 03:15:13;;;;;;;19.67;9.30;;;;;;;0.60;100.00;95367.03;5012887;28;20117;-72
2022/12/07 03:17:42;;;;;;;19.45;9.15;;;;;;;0.60;100.00;95361.09;5024741;28;20042;-72
2022/12/07 03:20:10;;;;;;;19.17;9.55;;;;;;;0.61;100.00;95362.69;5029057;28;20087;-69
2022/12/07 03:22:39;;;;;;;19.33;9.43;;;;;;;0.56;100.00;95367.69;5029021;28;20046;-69
2022/12/07 03:25:10;;;;;;;18.05;8.60;;;;;;;0.55;100.00;95363.50;5024144;28;20061;-69
2022/12/07 03:27:40;;;;;;;19.95;9.57;;;;;;;0.49;100.00;95365.16;5027147;28;20050;-69
2022/12/07 03:30:10;;;;;;;21.48;8.98;;;;;;;0.48;100.00;95364.34;5022627;28;20050;-72
2022/12/07 03:32:45;;;;;;;18.08;9.00;;;;;;;0.52;100.00;95364.72;5017076;28;20403;-72
2022/12/07 03:35:16;;;;;;;24.90;9.80;;;;;;;0.47;100.00;95367.16;5022430;28;20037;-72
2022/12/07 03:37:48;;;;;;;25.92;9.13;;;;;;;0.45;100.00;95359.59;5021343;28;20087;-72
2022/12/07 03:40:33;;;;;;;21.83;9.65;;;;;;;0.49;100.00;95360.75;5030027;28;20052;-72
2022/12/07 03:43:01;;;;;;;20.98;8.93;;;;;;;0.49;100.00;95355.59;5024193;28;20076;-72
2022/12/07 03:45:56;;;;;;;18.48;8.38;;;;;;;0.48;100.00;95353.97;5029771;28;20048;-72
2022/12/07 03:48:54;;;;;;;20.40;9.48;;;;;;;0.43;100.00;95353.84;5020001;28;20466;-72
2022/12/07 03:51:33;;;;;;;19.58;8.65;;;;;;;0.51;100.00;95356.16;5029495;28;20049;-72
2022/12/07 03:54:09;;;;;;;18.23;8.88;;;;;;;0.55;100.00;95347.97;5021946;28;20099;-72
2022/12/07 03:56:35;;;;;;;22.38;9.93;;;;;;;0.57;100.00;95356.34;5014197;28;20056;-72
2022/12/07 03:59:01;;;;;;;22.85;9.45;;;;;;;0.59;100.00;95354.31;5028653;28;20569;-72
2022/12/07 04:01:27;;;;;;;20.35;9.60;;;;;;;0.67;100.00;95351.47;5024769;28;20037;-72
2022/12/07 04:03:53;;;;;;;22.73;9.57;;;;;;;0.63;100.00;95345.13;5030147;28;20041;-72
2022/12/07 04:06:18;;;;;;;18.48;8.68;;;;;;;0.65;100.00;95343.91;5029571;28;20471;-72
2022/12/07 04:08:44;;;;;;;24.30;10.38;;;;;;;0.63;100.00;95345.13;5026200;28;20695;-72
2022/12/07 04:11:09;;;;;;;19.55;9.55;;;;;;;0.60;100.00;95342.97;5024209;28;20037;-72
2022/12/07 04:14:18;;;;;;;23.40;10.95;;;;;;;0.58;100.00;95347.56;5030030;28;20541;-72
2022/12/07 04:16:20;;;;;;;20.90;9.50;;;;;;;0.63;100.00;95348.53;5011130;28;20050;-72
2022/12/07 04:18:46;;;;;;;22.90;10.02;;;;;;;0.73;100.00;95345.44;5022328;28;20052;-72
2022/12/07 04:21:11;;;;;;;21.02;10.20;;;;;;;0.71;100.00;95344.88;5021281;28;20046;-71
2022/12/07 04:23:37;;;;;;;21.60;9.85;;;;;;;0.66;100.00;95342.91;5027002;28;20120;-72
2022/12/07 04:26:02;;;;;;;23.45;10.70;;;;;;;0.66;100.00;95355.06;5024825;28;20455;-72
2022/12/07 04:28:28;;;;;;;22.05;10.38;;;;;;;0.64;100.00;95346.72;5012161;28;20076;-69
2022/12/07 04:30:53;;;;;;;23.58;10.70;;;;;;;0.65;100.00;95348.31;5030296;28;20068;-72
2022/12/07 04:33:19;;;;;;;22.42;10.70;;;;;;;0.60;100.00;95345.53;5026427;28;20045;-72
2022/12/07 04:35:44;;;;;;;25.92;11.10;;;;;;;0.60;100.00;95348.13;5027958;28;20061;-72
2022/12/07 04:38:10;;;;;;;22.45;10.50;;;;;;;0.59;100.00;95349.94;5021017;28;20042;-72
2022/12/07 04:40:35;;;;;;;25.63;10.88;;;;;;;0.66;100.00;95353.28;5028574;28;20180;-72
2022/12/07 04:43:01;;;;;;;24.15;10.52;;;;;;;0.65;100.00;95345.72;5020085;28;20535;-71
2022/12/07 04:45:26;;;;;;;24.08;11.07;;;;;;;0.55;100.00;95347.97;5021745;28;20042;-72
2022/12/07 04:47:52;;;;;;;24.13;10.85;;;;;;;0.52;100.00;95349.19;5014622;28;20077;-71
2022/12/07 04:50:17;;;;;;;21.30;10.73;;;;;;;0.57;100.00;95351.16;5022529;28;20053;-71
2022/12/07 04:52:43;;;;;;;25.50;12.00;;;;;;;0.56;100.00;95344.38;5022824;28;20045;-71
2022/12/07 04:55:08;;;;;;;25.80;11.10;;;;;;;0.65;100.00;95348.31;5029033;28;20514;-71
2022/12/07 04:57:34;;;;;;;24.63;10.68;;;;;;;0.64;100.00;95344.13;5020378;28;20048;-71
2022/12/07 04:59:59;;;;;;;23.90;11.32;;;;;;;0.68;100.00;95347.88;5020839;28;20037;-71
2022/12/07 05:02:25;;;;;;;26.60;10.60;;;;;;;0.60;100.00;95348.13;5028901;28;20046;-71
2022/12/07 05:04:50;;;;;;;24.13;10.80;;;;;;;0.52;100.00;95352.56;5017438;28;20042;-71
2022/12/07 05:07:16;;;;;;;22.63;10.50;;;;;;;0.56;100.00;95346.97;5010355;28;20045;-71
2022/12/07 05:09:41;;;;;;;27.10;11.70;;;;;;;0.55;100.00;95353.13;5015571;28;20067;-71
2022/12/07 05:12:07;;;;;;;25.92;11.52;;;;;;;0.56;100.00;95357.31;5027713;28;20572;-72
2022/12/07 05:14:32;;;;;;;23.38;11.18;;;;;;;0.48;100.00;95364.34;5023639;28;20046;-71
2022/12/07 05:16:58;;;;;;;27.35;11.70;;;;;;;0.46;100.00;95358.59;5021349;28;20043;-71
2022/12/07 05:19:23;;;;;;;25.65;10.77;;;;;;;0.46;100.00;95358.59;5025074;28;20414;-72
2022/12/07 05:21:49;;;;;;;26.02;11.27;;;;;;;0.41;100.00;95358.41;5023170;28;20060;-72
2022/12/07 05:24:16;;;;;;;23.45;10.23;;;;;;;0.42;100.00;95357.41;5024622;28;20049;-71
2022/12/07 05:26:42;;;;;;;26.83;10.82;;;;;;;0.41;100.00;95353.22;5022207;28;20041;-71
2022/12/07 05:29:12;;;;;;;22.70;10.55;;;;;;;0.38;100.00;95353.66;5026552;28;20053;-70
2022/12/07 05:31:38;;;;;;;25.15;10.95;;;;;;;0.37;100.00;95357.25;5024819;28;20048;-71
2022/12/07 05:34:03;;;;;;;25.77;11.23;;;;;;;0.32;100.00;95344.16;5019691;28;20046;-71
2022/12/07 05:36:30;;;;;;;22.52;10.50;;;;;;;0.36;100.00;95342.72;5018063;28;20526;-71
2022/12/07 05:38:56;;;;;;;23.35;10.48;;;;;;;0.37;100.00;95352.06;5020666;28;20056;-71
2022/12/07 05:44:06;;;;;;;26.17;11.10;;;;;;;0.39;100.00;95344.91;5022249;28;20041;-71
2022/12/07 05:46:32;;;;;;;21.55;10.40;;;;;;;0.33;100.00;95343.13;5026749;28;20298;-71
2022/12/07 05:48:57;;;;;;;21.63;10.38;;;;;;;0.40;100.00;95351.63;5014175;28;20045;-71
2022/12/07 05:51:23;;;;;;;17.55;8.55;;;;;;;0.44;100.00;95358.00;5032611;28;20124;-71
2022/12/07 05:53:49;;;;;;;22.30;10.18;;;;;;;0.44;100.00;95357.22;5030289;28;20045;-70
2022/12/07 05:56:14;;;;;;;24.23;10.43;;;;;;;0.36;100.00;95354.84;5019673;28;20096;-71
2022/12/07 06:01:24;;;;;;;23.27;10.95;;;;;;;0.30;100.00;95352.13;5031965;28;20052;-71
2022/12/07 06:03:50;;;;;;;25.88;10.70;;;;;;;0.29;100.00;95360.09;5029117;28;20046;-71
2022/12/07 06:06:15;;;;;;;26.55;11.07;;;;;;;0.30;100.00;95359.06;5030632;28;20052;-71
2022/12/07 06:08:41;;;;;;;24.75;10.65;;;;;;;0.42;100.00;95364.41;5029387;28;20037;-71
2022/12/07 06:13:50;;;;;;;27.08;11.40;;;;;;;0.33;100.00;95356.06;5027111;28;20503;-71
2022/12/07 06:16:16;;;;;;;24.65;11.02;;;;;;;0.32;100.00;95365.63;5031311;28;20042;-71
2022/12/07 06:18:41;;;;;;;25.05;11.35;;;;;;;0.32;100.00;95360.47;5029072;28;20041;-71
2022/12/07 06:21:07;;;;;;;27.42;11.95;;;;;;;0.28;100.00;95363.69;5026146;28;20061;-71
2022/12/07 06:23:32;;;;;;;25.60;11.80;;;;;;;0.30;100.00;95366.84;5023641;28;20420;-71
2022/12/07 06:25:58;;;;;;;25.00;11.30;;;;;;;0.32;100.00;95370.03;5023463;28;20033;-71
2022/12/07 06:28:23;;;;;;;28.75;11.85;;;;;;;0.31;100.00;95371.03;5018691;28;20045;-70
2022/12/07 06:30:57;;;;;;;25.38;10.55;;;;;;;0.28;100.00;95376.63;5022446;28;20065;-73
2022/12/07 06:33:22;;;;;;;27.70;12.20;;;;;;;0.32;100.00;95370.03;5031673;28;20112;-71
2022/12/07 06:35:48;;;;;;;27.60;11.52;;;;;;;0.25;100.00;95364.88;5028143;28;20305;-71
2022/12/07 06:38:13;;;;;;;28.35;12.07;;;;;;;0.27;100.00;95372.44;5013045;28;20050;-71
2022/12/07 06:40:39;;;;;;;27.20;11.90;;;;;;;0.24;100.00;95378.03;5025975;28;20041;-71
2022/12/07 06:43:04;;;;;;;27.35;11.60;;;;;;;0.30;100.00;95369.44;5027098;28;20367;-71
2022/12/07 06:45:30;;;;;;;26.75;11.07;;;;;;;0.24;100.00;95367.69;5024327;28;20038;-71
2022/12/07 06:47:55;;;;;;;30.48;11.57;;;;;;;0.24;100.00;95370.25;5021513;28;20033;-71
2022/12/07 06:50:21;;;;;;;27.90;11.45;;;;;;;0.30;100.00;95379.78;5030709;28;20041;-71
2022/12/07 06:52:46;;;;;;;28.15;11.20;;;;;;;0.32;100.00;95375.22;5024566;28;20037;-71
2022/12/07 06:55:12;;;;;;;26.73;11.50;;;;;;;0.29;100.00;95375.63;5026307;28;20045;-71
2022/12/07 06:57:37;;;;;;;30.60;11.15;;;;;;;0.26;100.00;95376.03;5023330;28;20089;-71
2022/12/07 07:00:04;;;;;;;28.17;11.50;;;;;;;0.24;100.00;95378.03;5018554;28;20041;-71
2022/12/07 07:02:29;;;;;;;25.67;11.60;;;;;;;0.24;100.00;95383.22;5027126;28;20080;-71
2022/12/07 07:04:55;;;;;;;27.00;12.25;;;;;;;0.27;100.00;95393.16;5019771;28;20495;-71
2022/12/07 07:07:20;;;;;;;25.50;11.75;;;;;;;0.25;100.00;95384.81;5026423;28;20037;-71
2022/12/07 07:09:46;;;;;;;26.10;11.60;;;;;;;0.27;100.00;95387.97;5020918;28;20056;-71
2022/12/07 07:12:11;;;;;;;26.55;11.95;;;;;;;0.26;100.00;95386.38;5024095;28;20044;-71
2022/12/07 07:14:37;;;;;;;28.02;12.48;;;;;;;0.24;100.00;95383.22;5028950;28;20519;-71
2022/12/07 07:17:02;;;;;;;28.17;12.13;;;;;;;0.25;100.00;95379.63;5022279;28;20433;-71
2022/12/07 07:19:28;;;;;;;25.70;11.43;;;;;;;0.25;100.00;95385.59;5024036;28;20037;-71
2022/12/07 07:21:53;;;;;;;26.30;12.20;;;;;;;0.27;100.00;95393.16;5030171;28;20507;-71
2022/12/07 07:24:19;;;;;;;24.77;10.52;;;;;;;0.25;100.00;95387.38;5022732;28;20096;-71
2022/12/07 07:26:44;;;;;;;27.00;11.48;;;;;;;0.27;100.00;95390.56;5019323;28;20060;-71
2022/12/07 07:29:10;;;;;;;28.42;11.30;;;;;;;0.23;100.00;95397.94;5026451;28;20624;-71
2022/12/07 07:31:36;;;;;;;25.80;11.32;;;;;;;0.24;100.00;95403.91;5031913;28;20637;-71
2022/12/07 07:34:03;;;;;;;30.27;12.65;;;;;;;0.28;100.00;95405.09;5028738;28;20041;-71
2022/12/07 07:36:28;;;;;;;26.73;11.85;;;;;;;0.35;100.00;95403.25;5027880;28;20050;-71
2022/12/07 07:38:54;;;;;;;28.08;12.27;;;;;;;0.26;100.00;95401.91;5029576;28;20053;-71
2022/12/07 07:41:19;;;;;;;28.73;11.65;;;;;;;0.19;100.00;95398.56;5029597;28;20053;-71
2022/12/07 07:43:45;;;;;;;27.95;11.73;;;;;;;0.19;100.00;95408.91;5027454;28;20034;-71
2022/12/07 07:46:10;;;;;;;28.65;11.13;;;;;;;0.09;100.00;95397.22;5023156;28;20042;-71
2022/12/07 07:48:36;;;;;;;26.25;11.23;;;;;;;0.22;100.00;95411.09;5018313;28;20042;-71
2022/12/07 07:51:06;;;;;;;27.73;10.93;;;;;;;0.15;100.00;95411.91;5030665;28;20033;-71
2022/12/07 07:53:32;;;;;;;28.15;11.45;;;;;;;0.17;100.00;95412.50;5025250;28;20492;-72
2022/12/07 07:55:58;;;;;;;23.27;10.40;;;;;;;0.23;100.00;95407.50;5016833;28;20041;-70
2022/12/07 07:58:23;;;;;;;25.02;10.65;;;;;;;0.11;100.00;95407.34;5025313;28;20061;-70
2022/12/07 08:00:49;;;;;;;30.27;12.52;;;;;;;0.06;100.00;95407.97;5017942;28;20049;-71
2022/12/07 08:03:15;;;;;;;31.38;12.82;;;;;;;0.13;100.00;95416.50;5019686;28;20042;-70
2022/12/07 08:05:41;;;;;;;33.22;12.68;;;;;;;0.02;100.00;95411.97;5019792;28;20419;-70
2022/12/07 08:08:06;;;;;;;30.70;12.07;;;;;;;0.04;100.00;95412.53;5027726;28;20119;-70
2022/12/07 08:10:32;;;;;;;30.95;12.93;;;;;;;0.06;100.00;95418.31;5020781;28;20034;-71
2022/12/07 08:13:16;;;;;;;24.95;10.80;;;;;;;0.14;100.00;95405.16;5031330;28;20053;-70
2022/12/07 08:15:45;;;;;;;28.75;11.52;;;;;;;0.14;100.00;95409.53;5031137;28;20196;-69
2022/12/07 08:18:12;;;;;;;30.20;12.15;;;;;;;0.16;100.00;95413.50;5021479;28;20534;-70
2022/12/07 08:20:38;;;;;;;34.63;11.70;;;;;;;0.19;100.00;95411.50;5012580;28;20100;-70
2022/12/07 08:23:07;;;;;;;28.55;11.27;;;;;;;0.20;100.00;95408.69;5013076;28;20104;-69
2022/12/07 08:25:33;;;;;;;24.77;11.00;;;;;;;0.24;100.00;95411.69;5027474;28;20033;-69
2022/12/07 08:28:00;;;;;;;29.33;11.38;;;;;;;0.24;100.00;95419.44;5025314;28;20045;-70
2022/12/07 08:30:28;;;;;;;32.22;12.73;;;;;;;0.15;100.00;95417.09;5031248;28;20132;-69
2022/12/07 08:32:54;;;;;;;27.55;12.90;;;;;;;0.21;100.00;95419.84;5025898;28;20053;-70
2022/12/07 08:35:19;;;;;;;31.70;12.38;;;;;;;0.21;100.00;95409.50;5030653;28;20038;-70
2022/12/07 08:37:45;;;;;;;28.40;11.02;;;;;;;0.30;100.00;95410.84;5021129;28;20416;-69
2022/12/07 08:40:15;;;;;;;26.83;10.50;;;;;;;0.36;100.00;95412.63;5012461;28;20459;-70
2022/12/07 08:42:44;;;;;;;25.98;10.93;;;;;;;0.34;100.00;95419.78;5011478;28;20046;-70
2022/12/07 08:45:12;;;;;;;28.98;11.07;;;;;;;0.40;100.00;95418.94;5016507;28;20122;-71
2022/12/07 08:47:50;;;;;;;28.08;11.48;;;;;;;0.42;100.00;95416.97;5024895;28;20042;-71
2022/12/07 08:50:16;;;;;;;24.38;10.82;;;;;;;0.44;100.00;95414.94;5029626;28;20052;-70
2022/12/07 08:52:42;;;;;;;28.02;11.93;;;;;;;0.46;100.00;95407.78;5030759;28;20041;-70
2022/12/07 08:55:11;;;;;;;34.22;12.70;;;;;;;0.49;100.00;95412.53;5025906;28;20041;-71
2022/12/07 08:57:37;;;;;;;26.30;11.35;;;;;;;0.54;100.00;95413.72;5024067;28;20037;-70
2022/12/07 09:00:04;;;;;;;27.30;11.32;;;;;;;0.61;100.00;95422.25;5027320;28;20049;-70
2022/12/07 09:02:31;;;;;;;30.05;11.48;;;;;;;0.59;100.00;95426.81;5022186;28;20042;-70
2022/12/07 09:04:56;;;;;;;30.75;13.25;;;;;;;0.62;100.00;95426.44;5018216;28;20069;-70
2022/12/07 09:07:22;;;;;;;23.33;10.93;;;;;;;0.70;100.00;95418.38;5024449;28;20557;-70
2022/12/07 09:09:48;;;;;;;25.10;11.18;;;;;;;0.78;100.00;95419.97;5028794;28;20045;-70
2022/12/07 09:12:13;;;;;;;25.67;11.30;;;;;;;0.58;100.00;95425.25;5019190;28;20049;-71
2022/12/07 09:14:39;;;;;;;29.85;12.50;;;;;;;0.74;100.00;95423.97;5020501;28;20110;-70
2022/12/07 09:17:09;;;;;;;30.67;11.60;;;;;;;0.75;100.00;95421.16;5027482;28;20478;-72
2022/12/07 09:19:35;;;;;;;27.08;10.82;;;;;;;0.75;100.00;95417.75;5020811;28;20048;-71
2022/12/07 09:22:01;;;;;;;28.10;11.85;;;;;;;0.80;100.00;95416.13;5018337;28;20033;-74
2022/12/07 09:24:26;;;;;;;33.20;12.25;;;;;;;0.83;100.00;95417.50;5027266;28;20041;-70
2022/12/07 09:26:52;;;;;;;31.27;13.45;;;;;;;0.84;100.00;95409.53;5022060;28;20117;-70
2022/12/07 09:29:17;;;;;;;25.42;10.68;;;;;;;1.06;100.00;95410.97;5017549;28;21547;-72
2022/12/07 09:31:43;;;;;;;29.45;11.77;;;;;;;0.99;100.00;95405.84;5025253;28;20042;-71
2022/12/07 09:34:08;;;;;;;28.10;11.48;;;;;;;1.08;100.00;95403.78;5021607;28;20045;-71
2022/12/07 09:36:34;;;;;;;31.17;12.48;;;;;;;1.10;100.00;95418.13;5019407;28;20080;-71
2022/12/07 09:39:00;;;;;;;29.48;12.05;;;;;;;1.17;100.00;95413.66;5022193;28;20069;-71
2022/12/07 09:41:27;;;;;;;26.48;11.00;;;;;;;1.18;100.00;95410.06;5028398;28;20037;-71
2022/12/07 09:44:05;;;;;;;27.55;11.57;;;;;;;1.33;100.00;95396.78;5023028;28;20054;-71
2022/12/07 09:46:36;;;;;;;27.55;10.95;;;;;;;1.37;100.00;95386.78;5021704;28;20061;-71
2022/12/07 09:49:02;;;;;;;24.92;10.25;;;;;;;1.45;100.00;95389.09;5020813;28;20495;-74
2022/12/07 09:51:28;;;;;;;24.13;10.45;;;;;;;1.55;100.00;95394.59;5024569;28;20439;-72
2022/12/07 09:53:57;;;;;;;29.27;10.38;;;;;;;1.66;100.00;95387.09;5024646;28;20057;-71
2022/12/07 09:56:24;;;;;;;25.85;11.20;;;;;;;1.74;100.00;95386.81;5017260;28;20046;-71
2022/12/07 09:58:51;;;;;;;22.85;10.48;;;;;;;1.58;100.00;95389.97;5017874;28;20080;-71
2022/12/07 10:01:19;;;;;;;24.80;10.20;;;;;;;1.71;100.00;95388.03;5024941;28;20041;-73
2022/12/07 10:03:51;;;;;;;23.77;9.57;;;;;;;1.81;100.00;95390.13;5019752;28;20582;-72
2022/12/07 10:06:18;;;;;;;21.83;9.82;;;;;;;1.73;100.00;95382.63;5026453;28;20042;-70
2022/12/07 10:08:43;;;;;;;24.02;10.02;;;;;;;1.83;100.00;95390.69;5026534;28;20084;-72
2022/12/07 10:11:10;;;;;;;29.73;9.10;;;;;;;1.76;100.00;95384.78;5021757;28;20038;-75
2022/12/07 10:13:38;;;;;;;20.05;9.07;;;;;;;1.99;100.00;95383.34;5028616;28;20037;-76
2022/12/07 10:16:05;;;;;;;21.08;8.85;;;;;;;1.93;100.00;95381.63;5026900;28;20038;-69
2022/12/07 10:18:37;;;;;;;22.92;9.63;;;;;;;2.14;100.00;95380.34;5019850;28;20053;-69
2022/12/07 10:21:09;;;;;;;22.58;9.10;;;;;;;2.33;100.00;95378.50;5016031;28;20046;-69
2022/12/07 10:23:36;;;;;;;19.52;8.23;;;;;;;2.14;100.00;95375.97;5028313;28;20124;-70
2022/12/07 10:26:35;;;;;;;22.98;8.93;;;;;;;2.41;100.00;95375.63;5023644;28;20037;-71
2022/12/07 10:29:17;;;;;;;20.77;8.57;;;;;;;2.38;100.00;95370.88;5016889;28;20054;-70
2022/12/07 10:31:51;;;;;;;22.02;8.32;;;;;;;2.51;100.00;95375.09;5017827;28;20041;-71
2022/12/07 10:34:24;;;;;;;19.60;8.85;;;;;;;2.41;100.00;95380.81;5025097;28;20049;-70
2022/12/07 10:36:51;;;;;;;20.80;8.63;;;;;;;2.52;100.00;95374.84;5025198;28;20046;-69
2022/12/07 10:39:19;;;;;;;21.15;8.82;;;;;;;3.03;100.00;95377.91;5023245;28;20044;-70
2022/12/07 10:41:56;;;;;;;20.15;8.30;;;;;;;2.57;100.00;95380.19;5020793;28;20034;-69
2022/12/07 10:44:30;;;;;;;16.63;7.32;;;;;;;2.53;100.00;95379.06;5024335;28;20048;-69
2022/12/07 10:47:11;;;;;;;19.70;7.32;;;;;;;2.52;100.00;95372.25;5025669;28;20037;-69
2022/12/07 10:50:05;;;;;;;20.88;8.82;;;;;;;2.59;100.00;95366.97;5012097;28;20458;-69
2022/12/07 10:52:58;;;;;;;16.35;8.10;;;;;;;2.86;100.00;95367.38;5013894;28;20104;-70
2022/12/07 10:55:45;;;;;;;16.45;8.15;;;;;;;2.95;100.00;95366.03;5012899;28;20038;-70
2022/12/07 10:58:29;;;;;;;20.17;8.02;;;;;;;3.45;100.00;95353.63;5012535;28;20097;-70
2022/12/07 11:01:22;;;;;;;16.05;7.10;;;;;;;3.24;100.00;95358.34;5014529;28;20076;-70
2022/12/07 11:03:57;;;;;;;13.55;6.10;;;;;;;3.31;100.00;95352.25;5012818;28;20100;-70
2022/12/07 11:06:39;;;;;;;13.98;6.93;;;;;;;3.75;100.00;95347.44;5012919;28;20048;-70
2022/12/07 11:09:39;;;;;;;12.93;5.45;;;;;;;3.15;100.00;95338.09;5017907;28;20049;-69
2022/12/07 11:12:09;;;;;;;15.10;7.05;;;;;;;4.59;100.00;95335.69;5031016;28;20045;-69
2022/12/07 11:15:08;;;;;;;14.68;6.97;;;;;;;5.51;100.00;95331.06;5021311;28;20050;-70
2022/12/07 11:18:03;;;;;;;14.98;5.93;;;;;;;5.14;100.00;95329.78;5012665;28;20137;-69
2022/12/07 11:20:41;;;;;;;14.00;6.65;;;;;;;4.59;100.00;95338.31;5027280;28;20068;-69
2022/12/07 11:23:42;;;;;;;14.40;6.30;;;;;;;4.37;100.00;95335.56;5032541;28;20140;-69
2022/12/07 11:26:38;;;;;;;13.27;6.32;;;;;;;4.24;100.00;95329.63;5009242;28;20061;-70
2022/12/07 11:29:15;;;;;;;12.43;6.35;;;;;;;3.55;100.00;95322.59;5012945;28;20641;-70
2022/12/07 11:31:52;;;;;;;12.43;6.05;;;;;;;5.58;100.00;95316.00;5012747;28;20044;-70
2022/12/07 11:34:54;;;;;;;11.68;5.90;;;;;;;4.03;100.00;95327.69;5012905;28;20057;-69
2022/12/07 11:37:33;;;;;;;11.50;5.80;;;;;;;4.56;100.00;95323.16;5013737;28;20042;-69
2022/12/07 11:40:25;;;;;;;16.88;7.13;;;;;;;5.24;100.00;95310.06;5014890;28;20042;-70
2022/12/07 11:43:31;;;;;;;16.30;6.78;;;;;;;5.63;100.00;95308.25;5017218;28;20049;-70